5 day graph

You are here

Error message

  • Notice: Trying to access array offset on value of type int in DrupalRequestSanitizer::stripDangerousValues() (line 102 of /home/twolittl/public_html/cms/includes/request-sanitizer.inc).
  • Notice: Trying to access array offset on value of type int in DrupalRequestSanitizer::stripDangerousValues() (line 102 of /home/twolittl/public_html/cms/includes/request-sanitizer.inc).
  • Notice: Trying to access array offset on value of type int in DrupalRequestSanitizer::stripDangerousValues() (line 102 of /home/twolittl/public_html/cms/includes/request-sanitizer.inc).
  • Notice: Trying to access array offset on value of type int in DrupalRequestSanitizer::stripDangerousValues() (line 102 of /home/twolittl/public_html/cms/includes/request-sanitizer.inc).
  • Notice: Trying to access array offset on value of type int in DrupalRequestSanitizer::stripDangerousValues() (line 102 of /home/twolittl/public_html/cms/includes/request-sanitizer.inc).
  • Notice: Trying to access array offset on value of type int in DrupalRequestSanitizer::stripDangerousValues() (line 102 of /home/twolittl/public_html/cms/includes/request-sanitizer.inc).
  • Notice: Trying to access array offset on value of type int in DrupalRequestSanitizer::stripDangerousValues() (line 102 of /home/twolittl/public_html/cms/includes/request-sanitizer.inc).
  • Notice: Trying to access array offset on value of type int in DrupalRequestSanitizer::stripDangerousValues() (line 102 of /home/twolittl/public_html/cms/includes/request-sanitizer.inc).
  • Notice: Trying to access array offset on value of type int in DrupalRequestSanitizer::stripDangerousValues() (line 102 of /home/twolittl/public_html/cms/includes/request-sanitizer.inc).
  • Notice: Trying to access array offset on value of type int in DrupalRequestSanitizer::stripDangerousValues() (line 102 of /home/twolittl/public_html/cms/includes/request-sanitizer.inc).
  • Deprecated function: Function get_magic_quotes_gpc() is deprecated in phpMyEdit->get_cgi_var() (line 1773 of /home/twolittl/public_html/phpMyEdit.class.php).
  • Deprecated function: implode(): Passing glue string after array is deprecated. Swap the parameters in drupal_get_feeds() (line 394 of /home/twolittl/public_html/cms/includes/common.inc).

Hive Data

Page: 1 of 16645  Records: 998690

Row Date Time Hive Temp Hive Humidity Outside Temp Outside Humidity Bottom Board Temp Outside Wall Temp Electronics Temp Light Levels inHG Fan Heat Cover Notes
Clear Sorted By: Fan descending, Outside Wall Temp ascending, inHG ascending, Row descending
View 266544 Nov 30 2014 6:24:00pm 68.72 43 32.18 39 52.25 36.95 59 405 29.35 1 0 0 NA
View 341464 Jan 29 2015 12:55:28am 76.82 35 36.5 90 45.05 42.8 57.2 248 29.61 1 0 0 NA
View 271195 Dec 4 2014 12:45:53am 77.18 32 44.24 39 60.35 45.5 64.4 236 29.04 1 0 0 NA
View 273616 Dec 5 2014 5:22:35pm 66.02 65 48.2 62 59 48.2 64.4 242 29.14 1 0 0 NA
View 272000 Dec 4 2014 2:16:46pm 70.52 50 47.84 63 62.15 48.65 64.4 240 29.09 1 0 0 NA
View 45757 Jun 6 2014 12:23:02am 88.88 38 51.98 64 61.25 54.5 80.6 0 29.38 1 0 0 NA
View 220455 Oct 25 2014 8:30:41am 80.6 60 52.7 76 71.15 54.95 73.4 124 28.89 1 0 0 Recovery from power loss. Lost about 1 hour of data during power outage.
View 45759 Jun 6 2014 12:25:05am 88.88 37 51.98 64 61.25 54.95 80.6 0 29.38 1 0 0 NA
View 45758 Jun 6 2014 12:24:04am 88.88 36 51.98 64 61.25 54.95 80.6 0 29.38 1 0 0 NA
View 45761 Jun 6 2014 12:28:20am 88.7 38 51.98 65 61.25 54.95 80.6 0 29.39 1 0 0 NA
View 45760 Jun 6 2014 12:26:06am 88.7 38 51.98 65 61.25 54.95 80.6 0 29.39 1 0 0 NA
View 45756 Jun 6 2014 12:22:01am 89.06 37 52.16 64 61.25 54.95 80.6 0 29.39 1 0 0 NA
View 45755 Jun 6 2014 12:21:01am 89.06 37 52.16 64 61.25 54.95 80.6 0 29.39 1 0 0 NA
View 45754 Jun 6 2014 12:20:00am 89.06 36 52.16 64 61.25 54.95 80.6 0 29.39 1 0 0 NA
View 45753 Jun 6 2014 12:18:58am 89.06 38 52.16 64 61.25 54.95 80.6 0 29.39 1 0 0 NA
View 45752 Jun 6 2014 12:17:57am 89.06 37 52.16 64 61.25 54.95 80.6 0 29.39 1 0 0 NA
View 45751 Jun 6 2014 12:16:56am 89.06 37 52.16 64 61.7 55.4 80.6 0 29.38 1 0 0 NA
View 45749 Jun 6 2014 12:14:55am 89.06 39 52.16 64 61.7 55.4 80.6 0 29.38 1 0 0 NA
View 45746 Jun 6 2014 12:11:51am 89.06 36 52.16 64 61.7 55.4 82.4 0 29.38 1 0 0 NA
View 45743 Jun 6 2014 12:08:48am 89.24 36 52.34 64 61.7 55.4 82.4 0 29.38 1 0 0 NA
View 45739 Jun 6 2014 12:04:43am 89.24 35 52.7 63 62.15 55.4 82.4 0 29.38 1 0 0 NA
View 45738 Jun 6 2014 12:03:42am 89.42 36 52.7 63 62.15 55.4 82.4 0 29.38 1 0 0 NA
View 45737 Jun 6 2014 12:02:42am 89.24 38 52.88 63 62.15 55.4 82.4 0 29.38 1 0 0 NA
View 45750 Jun 6 2014 12:15:55am 89.06 38 52.16 64 61.25 55.4 80.6 0 29.39 1 0 0 NA
View 45748 Jun 6 2014 12:13:53am 89.06 45 52.16 64 61.7 55.4 82.4 0 29.39 1 0 0 NA
View 45747 Jun 6 2014 12:12:52am 89.06 37 52.34 65 61.7 55.4 82.4 0 29.39 1 0 0 NA
View 45745 Jun 6 2014 12:10:49am 89.06 36 52.16 64 61.7 55.4 82.4 0 29.39 1 0 0 NA
View 45744 Jun 6 2014 12:09:48am 89.06 36 52.16 64 61.7 55.4 82.4 0 29.39 1 0 0 NA
View 45742 Jun 6 2014 12:07:47am 89.24 37 52.34 64 61.7 55.4 82.4 0 29.39 1 0 0 NA
View 45741 Jun 6 2014 12:06:46am 89.24 37 52.34 64 61.7 55.4 82.4 0 29.39 1 0 0 NA
View 45740 Jun 6 2014 12:05:44am 89.24 36 52.52 64 61.7 55.4 82.4 0 29.39 1 0 0 NA
View 229502 Oct 31 2014 6:04:13pm 80.6 66 53.78 82 75.65 55.85 75.2 292 29.12 1 0 0 NA
View 45736 Jun 6 2014 12:01:41am 89.24 37 52.88 63 62.15 55.85 82.4 0 29.38 1 0 0 NA
View 45735 Jun 6 2014 12:00:39am 89.24 38 52.88 64 62.15 55.85 82.4 1 29.38 1 0 0 NA
View 45734 Jun 5 2014 11:59:38pm 89.24 37 52.88 64 62.15 55.85 82.4 0 29.38 1 0 0 NA
View 45733 Jun 5 2014 11:58:37pm 89.24 37 52.88 63 62.15 55.85 82.4 0 29.38 1 0 0 NA
View 45732 Jun 5 2014 11:57:35pm 89.24 36 52.88 63 62.15 55.85 82.4 0 29.38 1 0 0 NA
View 45731 Jun 5 2014 11:56:36pm 89.24 37 52.88 63 62.15 55.85 82.4 0 29.38 1 0 0 NA
View 45730 Jun 5 2014 11:55:34pm 89.24 37 53.06 64 62.15 55.85 82.4 0 29.38 1 0 0 NA
View 45729 Jun 5 2014 11:54:33pm 89.24 37 53.06 63 62.15 55.85 82.4 0 29.38 1 0 0 NA
View 45728 Jun 5 2014 11:53:32pm 89.24 38 53.06 63 62.15 56.3 82.4 0 29.38 1 0 0 NA
View 45727 Jun 5 2014 11:52:30pm 89.24 37 53.24 62 62.6 56.3 82.4 0 29.38 1 0 0 NA
View 45726 Jun 5 2014 11:51:30pm 89.24 38 53.24 62 62.6 56.3 82.4 0 29.38 1 0 0 NA
View 45725 Jun 5 2014 11:50:29pm 89.24 37 53.24 63 62.6 56.3 82.4 0 29.38 1 0 0 NA
View 45724 Jun 5 2014 11:49:28pm 89.24 35 53.24 63 62.6 56.3 82.4 0 29.38 1 0 0 NA
View 45723 Jun 5 2014 11:48:26pm 89.24 35 53.24 63 62.6 56.3 82.4 0 29.38 1 0 0 NA
View 45722 Jun 5 2014 11:47:25pm 89.24 34 53.24 63 62.6 56.3 82.4 0 29.38 1 0 0 NA
View 45721 Jun 5 2014 11:46:25pm 89.24 35 53.24 63 62.6 56.3 82.4 0 29.38 1 0 0 NA
View 45720 Jun 5 2014 11:45:24pm 89.24 35 53.24 63 62.6 56.3 82.4 0 29.38 1 0 0 NA
View 45719 Jun 5 2014 11:44:23pm 89.24 36 53.24 63 63.05 56.3 82.4 0 29.39 1 0 0 NA
View 40281 Jun 2 2014 12:38:08am 88.88 40 54.32 74 62.15 56.75 80.6 0 29.27 1 0 0 NA
View 40282 Jun 2 2014 12:39:10am 88.88 40 54.14 74 62.15 56.75 80.6 0 29.28 1 0 0 NA
View 45718 Jun 5 2014 11:43:21pm 89.24 37 53.24 63 63.05 56.75 82.4 0 29.38 1 0 0 NA
View 45717 Jun 5 2014 11:42:20pm 89.42 36 53.24 63 63.05 56.75 82.4 0 29.38 1 0 0 NA
View 45716 Jun 5 2014 11:41:20pm 89.42 36 53.24 63 63.05 56.75 82.4 0 29.38 1 0 0 NA
View 45715 Jun 5 2014 11:40:19pm 89.42 38 53.24 62 63.05 56.75 82.4 0 29.38 1 0 0 NA
View 45714 Jun 5 2014 11:39:17pm 89.42 35 53.42 62 63.05 56.75 82.4 0 29.38 1 0 0 NA
View 40285 Jun 2 2014 12:42:12am 88.7 41 54.14 74 62.6 57.2 80.6 0 29.27 1 0 0 NA
View 40284 Jun 2 2014 12:41:11am 88.7 41 53.96 73 62.6 57.2 80.6 0 29.27 1 0 0 NA
View 40283 Jun 2 2014 12:40:11am 88.88 41 54.14 74 62.15 57.2 80.6 0 29.27 1 0 0 NA